Hauptseite
METAR-TAF:

METAR-TAF

Flughäfen :

Flughafen Gaborone

Gaborone, Botsuana

Breite: 24-13S, Länge: 025-55E, Höhe: 1005 m

Beobachtung

Neuester Wetterbericht von vor 1 Stunde und 6 Minuten, um 13:00 UTC
Wind 5 kt aus West, variierte zwischen Süd/Südwest und Nordwest
Temperatur 18°C
Luftfeuchtigkeit 18%
Luftdruck 1022 hPa
Sichtweite 10 km oder mehr
keine Wolken unter 1500 m und keine Kumulonimbus oder Gewitterwolken

METAR: FBSK 271300Z 26005KT 210V320 CAVOK 18/M07 Q1022 NOSIG

Zeit: 16:06 (14:06 UTC)

Prognose

Neuester Wetterbericht von vor 4 Stunden und 6 Minuten, um 10:00 UTC
Gültige Prognose vom 27 um 12 UTC bis 28 um 18 UTC
Wind 10 kt aus Süd/Südwest
Sichtweite 10 km oder mehr
keine Wolken unter 1500 m und keine Kumulonimbus oder Gewitterwolken

TAF: FBSK 271000Z 2712/2818 20010KT CAVOK

Wetterbeobachtungen und Prognosen von mehr als 4000 Flughäfen (METAR und TAF Bericht).

Die verfügbaren Stationen werden durch gelbe und rote Markierungen auf der Karte dargestellt.

Führen Sie die Maus auf sie, um den Namen der Station zu sehen.

Darauf klicken, um die Beobachtung von Wetterbeobachtungen und Prognosen zu sehen.

Um die Karte zu ändern : klicken Sie auf den grünen Tasten mit einem schwarzen Kreuz Zum Vergrößern, auf den grünen Button mit einem Gedankenstrich zu verkleinern, oder auf die grünen Pfeile für benachbarte Karten.


METAR-TAF: